sensor_id;sensor_type;location;lat;lon;timestamp;temperature;humidity
21678;DHT22;11000;50.360;7.582;2023-06-10T00:00:51;22.20;99.90
21678;DHT22;11000;50.360;7.582;2023-06-10T00:03:11;22.10;99.90
21678;DHT22;11000;50.360;7.582;2023-06-10T00:05:32;22.10;99.90
21678;DHT22;11000;50.360;7.582;2023-06-10T00:07:55;22.00;99.90
21678;DHT22;11000;50.360;7.582;2023-06-10T00:10:16;22.00;99.90
21678;DHT22;11000;50.360;7.582;2023-06-10T00:12:37;22.00;99.90
21678;DHT22;11000;50.360;7.582;2023-06-10T00:14:58;22.00;99.90
21678;DHT22;11000;50.360;7.582;2023-06-10T00:17:19;22.00;99.90
21678;DHT22;11000;50.360;7.582;2023-06-10T00:19:39;21.90;99.90
21678;DHT22;11000;50.360;7.582;2023-06-10T00:22:01;21.90;99.90
21678;DHT22;11000;50.360;7.582;2023-06-10T00:24:21;21.90;99.90
21678;DHT22;11000;50.360;7.582;2023-06-10T00:26:42;21.80;99.90
21678;DHT22;11000;50.360;7.582;2023-06-10T00:29:03;21.80;99.90
21678;DHT22;11000;50.360;7.582;2023-06-10T00:31:23;21.80;99.90
21678;DHT22;11000;50.360;7.582;2023-06-10T00:33:44;21.70;99.90
21678;DHT22;11000;50.360;7.582;2023-06-10T00:36:04;21.60;99.90
21678;DHT22;11000;50.360;7.582;2023-06-10T00:38:25;21.70;99.90
21678;DHT22;11000;50.360;7.582;2023-06-10T00:40:46;21.60;99.90
21678;DHT22;11000;50.360;7.582;2023-06-10T00:43:07;21.60;99.90
21678;DHT22;11000;50.360;7.582;2023-06-10T00:45:28;21.60;99.90
21678;DHT22;11000;50.360;7.582;2023-06-10T00:47:48;21.60;99.90
21678;DHT22;11000;50.360;7.582;2023-06-10T00:50:09;21.60;99.90
21678;DHT22;11000;50.360;7.582;2023-06-10T00:52:30;21.50;99.90
21678;DHT22;11000;50.360;7.582;2023-06-10T00:54:51;21.50;99.90
21678;DHT22;11000;50.360;7.582;2023-06-10T00:57:12;21.50;99.90
21678;DHT22;11000;50.360;7.582;2023-06-10T00:59:34;21.50;99.90
21678;DHT22;11000;50.360;7.582;2023-06-10T01:01:54;21.50;99.90
21678;DHT22;11000;50.360;7.582;2023-06-10T01:04:16;21.40;99.90
21678;DHT22;11000;50.360;7.582;2023-06-10T01:09:37;21.40;99.90
21678;DHT22;11000;50.360;7.582;2023-06-10T01:12:05;21.30;99.90
21678;DHT22;11000;50.360;7.582;2023-06-10T01:14:29;21.30;99.90
21678;DHT22;11000;50.360;7.582;2023-06-10T01:16:52;21.30;99.90
21678;DHT22;11000;50.360;7.582;2023-06-10T01:19:15;21.30;99.90
21678;DHT22;11000;50.360;7.582;2023-06-10T01:21:38;21.20;99.90
21678;DHT22;11000;50.360;7.582;2023-06-10T01:24:00;21.20;99.90
21678;DHT22;11000;50.360;7.582;2023-06-10T01:26:24;21.20;99.90
21678;DHT22;11000;50.360;7.582;2023-06-10T01:28:54;21.10;99.90
21678;DHT22;11000;50.360;7.582;2023-06-10T01:33:46;21.00;99.90
21678;DHT22;11000;50.360;7.582;2023-06-10T01:36:07;20.90;99.90
21678;DHT22;11000;50.360;7.582;2023-06-10T01:38:32;20.80;99.90
21678;DHT22;11000;50.360;7.582;2023-06-10T01:40:53;20.80;99.90
21678;DHT22;11000;50.360;7.582;2023-06-10T01:43:15;20.70;99.90
21678;DHT22;11000;50.360;7.582;2023-06-10T01:45:36;20.60;99.90
21678;DHT22;11000;50.360;7.582;2023-06-10T01:47:56;20.60;99.90
21678;DHT22;11000;50.360;7.582;2023-06-10T01:50:17;20.50;99.90
21678;DHT22;11000;50.360;7.582;2023-06-10T01:52:37;20.50;99.90
21678;DHT22;11000;50.360;7.582;2023-06-10T01:54:58;20.30;99.90
21678;DHT22;11000;50.360;7.582;2023-06-10T01:57:18;20.30;99.90
21678;DHT22;11000;50.360;7.582;2023-06-10T01:59:39;20.30;99.90
21678;DHT22;11000;50.360;7.582;2023-06-10T02:02:00;20.30;99.90
21678;DHT22;11000;50.360;7.582;2023-06-10T02:04:20;20.30;99.90
21678;DHT22;11000;50.360;7.582;2023-06-10T02:06:41;20.30;99.90
21678;DHT22;11000;50.360;7.582;2023-06-10T02:09:02;20.10;99.90
21678;DHT22;11000;50.360;7.582;2023-06-10T02:11:22;20.00;99.90
21678;DHT22;11000;50.360;7.582;2023-06-10T02:13:43;20.00;99.90
21678;DHT22;11000;50.360;7.582;2023-06-10T02:16:03;19.90;99.90
21678;DHT22;11000;50.360;7.582;2023-06-10T02:18:25;19.90;99.90
21678;DHT22;11000;50.360;7.582;2023-06-10T02:20:47;19.90;99.90
21678;DHT22;11000;50.360;7.582;2023-06-10T02:23:07;19.80;99.90
21678;DHT22;11000;50.360;7.582;2023-06-10T02:25:28;19.80;99.90
21678;DHT22;11000;50.360;7.582;2023-06-10T02:27:48;19.70;99.90
21678;DHT22;11000;50.360;7.582;2023-06-10T02:30:09;19.70;99.90
21678;DHT22;11000;50.360;7.582;2023-06-10T02:32:30;19.70;99.90
21678;DHT22;11000;50.360;7.582;2023-06-10T02:34:51;19.40;99.90
21678;DHT22;11000;50.360;7.582;2023-06-10T02:37:12;19.50;99.90
21678;DHT22;11000;50.360;7.582;2023-06-10T02:39:33;19.50;99.90
21678;DHT22;11000;50.360;7.582;2023-06-10T02:41:53;19.40;99.90
21678;DHT22;11000;50.360;7.582;2023-06-10T02:44:14;19.30;99.90
21678;DHT22;11000;50.360;7.582;2023-06-10T02:46:34;19.30;99.90
21678;DHT22;11000;50.360;7.582;2023-06-10T02:48:55;19.30;99.90
21678;DHT22;11000;50.360;7.582;2023-06-10T02:51:15;19.30;99.90
21678;DHT22;11000;50.360;7.582;2023-06-10T02:53:36;19.30;99.90
21678;DHT22;11000;50.360;7.582;2023-06-10T02:55:56;19.30;99.90
21678;DHT22;11000;50.360;7.582;2023-06-10T02:58:17;19.30;99.90
21678;DHT22;11000;50.360;7.582;2023-06-10T03:00:37;19.30;99.90
21678;DHT22;11000;50.360;7.582;2023-06-10T03:03:01;19.30;99.90
21678;DHT22;11000;50.360;7.582;2023-06-10T03:05:23;19.30;99.90
21678;DHT22;11000;50.360;7.582;2023-06-10T03:07:44;19.30;99.90
21678;DHT22;11000;50.360;7.582;2023-06-10T03:10:08;19.20;99.90
21678;DHT22;11000;50.360;7.582;2023-06-10T03:12:28;19.20;99.90
21678;DHT22;11000;50.360;7.582;2023-06-10T03:14:49;19.10;99.90
21678;DHT22;11000;50.360;7.582;2023-06-10T03:17:09;19.10;99.90
21678;DHT22;11000;50.360;7.582;2023-06-10T03:19:30;19.10;99.90
21678;DHT22;11000;50.360;7.582;2023-06-10T03:22:08;19.10;99.90
21678;DHT22;11000;50.360;7.582;2023-06-10T03:24:28;19.10;99.90
21678;DHT22;11000;50.360;7.582;2023-06-10T03:26:49;19.10;99.90
21678;DHT22;11000;50.360;7.582;2023-06-10T03:29:09;19.00;99.90
21678;DHT22;11000;50.360;7.582;2023-06-10T03:31:30;19.00;99.90
21678;DHT22;11000;50.360;7.582;2023-06-10T03:33:51;19.00;99.90
21678;DHT22;11000;50.360;7.582;2023-06-10T03:36:11;18.90;99.90
21678;DHT22;11000;50.360;7.582;2023-06-10T03:38:32;19.00;99.90
21678;DHT22;11000;50.360;7.582;2023-06-10T03:40:52;18.90;99.90
21678;DHT22;11000;50.360;7.582;2023-06-10T03:43:13;18.90;99.90
21678;DHT22;11000;50.360;7.582;2023-06-10T03:45:33;18.80;99.90
21678;DHT22;11000;50.360;7.582;2023-06-10T03:47:54;18.70;99.90
21678;DHT22;11000;50.360;7.582;2023-06-10T03:50:14;18.80;99.90
21678;DHT22;11000;50.360;7.582;2023-06-10T03:52:35;18.70;99.90
21678;DHT22;11000;50.360;7.582;2023-06-10T03:54:56;18.80;99.90
21678;DHT22;11000;50.360;7.582;2023-06-10T03:57:16;18.90;99.90
21678;DHT22;11000;50.360;7.582;2023-06-10T03:59:37;18.90;99.90
21678;DHT22;11000;50.360;7.582;2023-06-10T04:01:57;19.00;99.90
21678;DHT22;11000;50.360;7.582;2023-06-10T04:04:18;18.90;99.90
21678;DHT22;11000;50.360;7.582;2023-06-10T04:06:39;18.90;99.90
21678;DHT22;11000;50.360;7.582;2023-06-10T04:08:59;19.00;99.90
21678;DHT22;11000;50.360;7.582;2023-06-10T04:11:20;19.00;99.90
21678;DHT22;11000;50.360;7.582;2023-06-10T04:13:41;19.00;99.90
21678;DHT22;11000;50.360;7.582;2023-06-10T04:16:01;19.00;99.90
21678;DHT22;11000;50.360;7.582;2023-06-10T04:18:22;19.10;99.90
21678;DHT22;11000;50.360;7.582;2023-06-10T04:20:43;19.10;99.90
21678;DHT22;11000;50.360;7.582;2023-06-10T04:23:04;19.00;99.90
21678;DHT22;11000;50.360;7.582;2023-06-10T04:25:25;19.00;99.90
21678;DHT22;11000;50.360;7.582;2023-06-10T04:27:46;19.00;99.90
21678;DHT22;11000;50.360;7.582;2023-06-10T04:30:07;18.90;99.90
21678;DHT22;11000;50.360;7.582;2023-06-10T04:32:27;19.00;99.90
21678;DHT22;11000;50.360;7.582;2023-06-10T04:34:48;18.90;99.90
21678;DHT22;11000;50.360;7.582;2023-06-10T04:37:09;18.90;99.90
21678;DHT22;11000;50.360;7.582;2023-06-10T04:39:30;18.90;99.90
21678;DHT22;11000;50.360;7.582;2023-06-10T04:41:50;18.90;99.90
21678;DHT22;11000;50.360;7.582;2023-06-10T04:44:11;18.80;99.90
21678;DHT22;11000;50.360;7.582;2023-06-10T04:46:32;18.70;99.90
21678;DHT22;11000;50.360;7.582;2023-06-10T04:48:53;18.70;99.90
21678;DHT22;11000;50.360;7.582;2023-06-10T04:51:14;18.80;99.90
21678;DHT22;11000;50.360;7.582;2023-06-10T04:53:35;18.90;99.90
21678;DHT22;11000;50.360;7.582;2023-06-10T04:55:56;18.80;99.90
21678;DHT22;11000;50.360;7.582;2023-06-10T04:58:17;18.90;99.90
21678;DHT22;11000;50.360;7.582;2023-06-10T05:00:38;18.90;99.90
21678;DHT22;11000;50.360;7.582;2023-06-10T05:02:58;18.90;99.90
21678;DHT22;11000;50.360;7.582;2023-06-10T05:05:19;19.00;99.90
21678;DHT22;11000;50.360;7.582;2023-06-10T05:07:39;18.90;99.90
21678;DHT22;11000;50.360;7.582;2023-06-10T05:10:00;19.10;99.90
21678;DHT22;11000;50.360;7.582;2023-06-10T05:12:21;19.30;99.90
21678;DHT22;11000;50.360;7.582;2023-06-10T05:14:42;19.40;99.90
21678;DHT22;11000;50.360;7.582;2023-06-10T05:17:03;19.50;99.90
21678;DHT22;11000;50.360;7.582;2023-06-10T05:19:25;19.60;99.90
21678;DHT22;11000;50.360;7.582;2023-06-10T05:21:47;19.80;99.90
21678;DHT22;11000;50.360;7.582;2023-06-10T05:24:08;20.10;99.90
21678;DHT22;11000;50.360;7.582;2023-06-10T05:26:29;20.30;99.90
21678;DHT22;11000;50.360;7.582;2023-06-10T05:28:51;20.50;99.90
21678;DHT22;11000;50.360;7.582;2023-06-10T05:31:12;20.80;99.90
21678;DHT22;11000;50.360;7.582;2023-06-10T05:33:33;20.80;99.90
21678;DHT22;11000;50.360;7.582;2023-06-10T05:35:54;20.90;99.90
21678;DHT22;11000;50.360;7.582;2023-06-10T05:38:15;21.10;99.90
21678;DHT22;11000;50.360;7.582;2023-06-10T05:40:35;21.20;99.90
21678;DHT22;11000;50.360;7.582;2023-06-10T05:42:56;21.30;99.90
21678;DHT22;11000;50.360;7.582;2023-06-10T05:45:16;21.50;99.90
21678;DHT22;11000;50.360;7.582;2023-06-10T05:47:37;21.90;99.90
21678;DHT22;11000;50.360;7.582;2023-06-10T05:49:57;22.30;99.90
21678;DHT22;11000;50.360;7.582;2023-06-10T05:52:18;22.40;99.90
21678;DHT22;11000;50.360;7.582;2023-06-10T05:54:38;22.80;99.90
21678;DHT22;11000;50.360;7.582;2023-06-10T05:56:59;22.90;99.90
21678;DHT22;11000;50.360;7.582;2023-06-10T05:59:19;23.20;99.90
21678;DHT22;11000;50.360;7.582;2023-06-10T06:01:40;23.60;99.90
21678;DHT22;11000;50.360;7.582;2023-06-10T06:04:00;23.50;99.90
21678;DHT22;11000;50.360;7.582;2023-06-10T06:06:21;23.90;99.90
21678;DHT22;11000;50.360;7.582;2023-06-10T06:08:42;23.90;99.90
21678;DHT22;11000;50.360;7.582;2023-06-10T06:11:02;24.00;99.90
21678;DHT22;11000;50.360;7.582;2023-06-10T06:13:23;24.40;99.90
21678;DHT22;11000;50.360;7.582;2023-06-10T06:15:43;24.60;99.90
21678;DHT22;11000;50.360;7.582;2023-06-10T06:18:04;24.80;99.90
21678;DHT22;11000;50.360;7.582;2023-06-10T06:20:24;24.70;99.90
21678;DHT22;11000;50.360;7.582;2023-06-10T06:22:45;24.70;99.90
21678;DHT22;11000;50.360;7.582;2023-06-10T06:25:06;24.60;99.90
21678;DHT22;11000;50.360;7.582;2023-06-10T06:27:27;25.00;99.90
21678;DHT22;11000;50.360;7.582;2023-06-10T06:29:48;25.40;99.90
21678;DHT22;11000;50.360;7.582;2023-06-10T06:32:08;25.70;99.80
21678;DHT22;11000;50.360;7.582;2023-06-10T06:34:29;26.00;99.10
21678;DHT22;11000;50.360;7.582;2023-06-10T06:36:49;26.30;95.50
21678;DHT22;11000;50.360;7.582;2023-06-10T06:39:10;26.60;93.70
21678;DHT22;11000;50.360;7.582;2023-06-10T06:41:30;26.70;91.80
21678;DHT22;11000;50.360;7.582;2023-06-10T06:43:50;26.60;92.10
21678;DHT22;11000;50.360;7.582;2023-06-10T06:46:11;26.70;91.60
21678;DHT22;11000;50.360;7.582;2023-06-10T06:48:31;26.80;90.80
21678;DHT22;11000;50.360;7.582;2023-06-10T06:50:52;27.20;90.30
21678;DHT22;11000;50.360;7.582;2023-06-10T06:53:13;26.90;88.70
21678;DHT22;11000;50.360;7.582;2023-06-10T06:55:33;26.70;89.50
21678;DHT22;11000;50.360;7.582;2023-06-10T06:57:54;26.40;92.80
21678;DHT22;11000;50.360;7.582;2023-06-10T07:00:14;26.40;91.40
21678;DHT22;11000;50.360;7.582;2023-06-10T07:02:35;26.50;92.20
21678;DHT22;11000;50.360;7.582;2023-06-10T07:04:56;26.90;91.20
21678;DHT22;11000;50.360;7.582;2023-06-10T07:07:17;27.10;87.70
21678;DHT22;11000;50.360;7.582;2023-06-10T07:09:38;27.30;89.10
21678;DHT22;11000;50.360;7.582;2023-06-10T07:11:58;27.70;87.30
21678;DHT22;11000;50.360;7.582;2023-06-10T07:14:19;26.90;86.50
21678;DHT22;11000;50.360;7.582;2023-06-10T07:16:39;27.10;88.30
21678;DHT22;11000;50.360;7.582;2023-06-10T07:19:00;27.40;88.10
21678;DHT22;11000;50.360;7.582;2023-06-10T07:21:20;27.00;84.50
21678;DHT22;11000;50.360;7.582;2023-06-10T07:23:43;27.20;90.70
21678;DHT22;11000;50.360;7.582;2023-06-10T07:26:05;27.40;86.60
21678;DHT22;11000;50.360;7.582;2023-06-10T07:28:25;27.50;82.50
21678;DHT22;11000;50.360;7.582;2023-06-10T07:30:46;28.10;81.60
21678;DHT22;11000;50.360;7.582;2023-06-10T07:33:06;27.40;80.50
21678;DHT22;11000;50.360;7.582;2023-06-10T07:35:28;27.20;80.30
21678;DHT22;11000;50.360;7.582;2023-06-10T07:37:48;27.30;79.90
21678;DHT22;11000;50.360;7.582;2023-06-10T07:40:09;27.60;81.80
21678;DHT22;11000;50.360;7.582;2023-06-10T07:42:34;26.70;85.00
21678;DHT22;11000;50.360;7.582;2023-06-10T07:44:55;26.70;84.20
21678;DHT22;11000;50.360;7.582;2023-06-10T07:47:15;26.70;84.40
21678;DHT22;11000;50.360;7.582;2023-06-10T07:49:36;26.90;83.80
21678;DHT22;11000;50.360;7.582;2023-06-10T07:51:57;27.10;87.60
21678;DHT22;11000;50.360;7.582;2023-06-10T07:54:17;27.80;83.10
21678;DHT22;11000;50.360;7.582;2023-06-10T07:56:38;28.30;79.90
21678;DHT22;11000;50.360;7.582;2023-06-10T07:58:59;28.80;77.00
21678;DHT22;11000;50.360;7.582;2023-06-10T08:01:19;29.10;75.80
21678;DHT22;11000;50.360;7.582;2023-06-10T08:03:40;28.50;74.10
21678;DHT22;11000;50.360;7.582;2023-06-10T08:06:00;28.60;75.90
21678;DHT22;11000;50.360;7.582;2023-06-10T08:08:21;29.00;74.90
21678;DHT22;11000;50.360;7.582;2023-06-10T08:10:42;28.70;73.90
21678;DHT22;11000;50.360;7.582;2023-06-10T08:13:02;28.90;77.30
21678;DHT22;11000;50.360;7.582;2023-06-10T08:15:23;28.80;73.30
21678;DHT22;11000;50.360;7.582;2023-06-10T08:17:43;28.80;73.80
21678;DHT22;11000;50.360;7.582;2023-06-10T08:20:05;29.40;72.90
21678;DHT22;11000;50.360;7.582;2023-06-10T08:22:27;29.60;72.20
21678;DHT22;11000;50.360;7.582;2023-06-10T08:24:49;29.50;69.00
21678;DHT22;11000;50.360;7.582;2023-06-10T08:27:10;29.20;70.90
21678;DHT22;11000;50.360;7.582;2023-06-10T08:29:30;29.70;70.30
21678;DHT22;11000;50.360;7.582;2023-06-10T08:31:52;29.80;68.30
21678;DHT22;11000;50.360;7.582;2023-06-10T08:34:12;28.90;70.10
21678;DHT22;11000;50.360;7.582;2023-06-10T08:36:33;28.90;69.70
21678;DHT22;11000;50.360;7.582;2023-06-10T08:38:54;29.70;71.20
21678;DHT22;11000;50.360;7.582;2023-06-10T08:41:17;30.30;68.60
21678;DHT22;11000;50.360;7.582;2023-06-10T08:43:44;30.00;64.70
21678;DHT22;11000;50.360;7.582;2023-06-10T08:46:09;29.90;65.20
21678;DHT22;11000;50.360;7.582;2023-06-10T08:48:30;29.80;65.70
21678;DHT22;11000;50.360;7.582;2023-06-10T08:50:52;29.70;64.80
21678;DHT22;11000;50.360;7.582;2023-06-10T08:53:18;30.20;65.10
21678;DHT22;11000;50.360;7.582;2023-06-10T08:55:42;30.00;63.50
21678;DHT22;11000;50.360;7.582;2023-06-10T08:58:02;29.90;64.60
21678;DHT22;11000;50.360;7.582;2023-06-10T09:00:23;30.60;62.90
21678;DHT22;11000;50.360;7.582;2023-06-10T09:02:45;31.00;60.80
21678;DHT22;11000;50.360;7.582;2023-06-10T09:05:07;30.80;61.30
21678;DHT22;11000;50.360;7.582;2023-06-10T09:07:31;29.90;62.20
21678;DHT22;11000;50.360;7.582;2023-06-10T09:09:55;29.70;61.60
21678;DHT22;11000;50.360;7.582;2023-06-10T09:12:16;30.20;64.30
21678;DHT22;11000;50.360;7.582;2023-06-10T09:14:36;30.80;62.00
21678;DHT22;11000;50.360;7.582;2023-06-10T09:16:57;30.30;61.20
21678;DHT22;11000;50.360;7.582;2023-06-10T09:19:18;30.60;59.80
21678;DHT22;11000;50.360;7.582;2023-06-10T09:21:41;30.50;60.70
21678;DHT22;11000;50.360;7.582;2023-06-10T09:24:02;30.30;60.80
21678;DHT22;11000;50.360;7.582;2023-06-10T09:26:30;31.10;60.00
21678;DHT22;11000;50.360;7.582;2023-06-10T09:28:51;30.80;60.00
21678;DHT22;11000;50.360;7.582;2023-06-10T09:31:11;31.80;58.50
21678;DHT22;11000;50.360;7.582;2023-06-10T09:33:32;32.10;58.40
21678;DHT22;11000;50.360;7.582;2023-06-10T09:35:53;32.70;57.20
21678;DHT22;11000;50.360;7.582;2023-06-10T09:38:22;32.60;56.30
21678;DHT22;11000;50.360;7.582;2023-06-10T09:40:51;32.00;54.50
21678;DHT22;11000;50.360;7.582;2023-06-10T09:43:11;32.30;54.50
21678;DHT22;11000;50.360;7.582;2023-06-10T09:45:33;32.40;54.10
21678;DHT22;11000;50.360;7.582;2023-06-10T09:47:54;32.60;54.90
21678;DHT22;11000;50.360;7.582;2023-06-10T09:50:14;32.50;52.20
21678;DHT22;11000;50.360;7.582;2023-06-10T09:52:37;32.80;54.20
21678;DHT22;11000;50.360;7.582;2023-06-10T09:55:01;31.60;53.40
21678;DHT22;11000;50.360;7.582;2023-06-10T09:57:22;30.80;54.70
21678;DHT22;11000;50.360;7.582;2023-06-10T09:59:42;30.30;56.30
21678;DHT22;11000;50.360;7.582;2023-06-10T10:02:04;30.60;56.50
21678;DHT22;11000;50.360;7.582;2023-06-10T10:04:25;31.10;55.60
21678;DHT22;11000;50.360;7.582;2023-06-10T10:06:46;30.80;54.70
21678;DHT22;11000;50.360;7.582;2023-06-10T10:09:06;30.70;51.10
21678;DHT22;11000;50.360;7.582;2023-06-10T10:11:27;30.80;52.00
21678;DHT22;11000;50.360;7.582;2023-06-10T10:13:50;30.40;49.90
21678;DHT22;11000;50.360;7.582;2023-06-10T10:16:14;30.00;50.90
21678;DHT22;11000;50.360;7.582;2023-06-10T10:18:41;30.40;51.10
21678;DHT22;11000;50.360;7.582;2023-06-10T10:21:07;31.00;49.10
21678;DHT22;11000;50.360;7.582;2023-06-10T10:23:40;31.50;47.70
21678;DHT22;11000;50.360;7.582;2023-06-10T10:26:07;31.40;46.70
21678;DHT22;11000;50.360;7.582;2023-06-10T10:28:37;31.30;47.30
21678;DHT22;11000;50.360;7.582;2023-06-10T10:31:05;31.90;46.40
21678;DHT22;11000;50.360;7.582;2023-06-10T10:33:46;31.50;47.50
21678;DHT22;11000;50.360;7.582;2023-06-10T10:36:09;30.40;47.50
21678;DHT22;11000;50.360;7.582;2023-06-10T10:38:30;30.30;47.90
21678;DHT22;11000;50.360;7.582;2023-06-10T10:40:52;30.20;49.10
21678;DHT22;11000;50.360;7.582;2023-06-10T10:43:13;30.00;48.10
21678;DHT22;11000;50.360;7.582;2023-06-10T10:45:34;29.70;47.90
21678;DHT22;11000;50.360;7.582;2023-06-10T10:47:55;30.30;49.90
21678;DHT22;11000;50.360;7.582;2023-06-10T10:50:18;31.00;47.90
21678;DHT22;11000;50.360;7.582;2023-06-10T10:55:13;30.40;47.70
21678;DHT22;11000;50.360;7.582;2023-06-10T10:57:38;30.00;48.30
21678;DHT22;11000;50.360;7.582;2023-06-10T10:59:59;29.80;49.10
21678;DHT22;11000;50.360;7.582;2023-06-10T11:04:58;29.70;49.20
21678;DHT22;11000;50.360;7.582;2023-06-10T11:07:20;30.10;49.00
21678;DHT22;11000;50.360;7.582;2023-06-10T11:10:10;31.00;49.00
21678;DHT22;11000;50.360;7.582;2023-06-10T11:15:07;31.60;47.50
21678;DHT22;11000;50.360;7.582;2023-06-10T11:17:27;31.60;47.10
21678;DHT22;11000;50.360;7.582;2023-06-10T11:19:48;30.50;48.20
21678;DHT22;11000;50.360;7.582;2023-06-10T11:22:08;30.10;48.60
21678;DHT22;11000;50.360;7.582;2023-06-10T11:24:36;29.60;49.10
21678;DHT22;11000;50.360;7.582;2023-06-10T11:27:22;29.30;49.10
21678;DHT22;11000;50.360;7.582;2023-06-10T11:32:32;29.90;50.90
21678;DHT22;11000;50.360;7.582;2023-06-10T11:34:53;30.40;49.50
21678;DHT22;11000;50.360;7.582;2023-06-10T11:37:15;31.30;48.10
21678;DHT22;11000;50.360;7.582;2023-06-10T11:39:36;31.40;46.80
21678;DHT22;11000;50.360;7.582;2023-06-10T11:41:57;31.30;48.00
21678;DHT22;11000;50.360;7.582;2023-06-10T11:44:18;31.50;47.40
21678;DHT22;11000;50.360;7.582;2023-06-10T11:46:39;31.70;47.20
21678;DHT22;11000;50.360;7.582;2023-06-10T11:49:01;31.90;47.20
21678;DHT22;11000;50.360;7.582;2023-06-10T11:51:26;31.70;45.40
21678;DHT22;11000;50.360;7.582;2023-06-10T11:53:50;30.10;47.10
21678;DHT22;11000;50.360;7.582;2023-06-10T11:56:11;30.40;49.00
21678;DHT22;11000;50.360;7.582;2023-06-10T11:58:31;30.70;48.10
21678;DHT22;11000;50.360;7.582;2023-06-10T12:00:55;30.50;48.10
21678;DHT22;11000;50.360;7.582;2023-06-10T12:03:18;30.80;47.60
21678;DHT22;11000;50.360;7.582;2023-06-10T12:05:39;31.30;47.20
21678;DHT22;11000;50.360;7.582;2023-06-10T12:08:11;30.70;47.20
21678;DHT22;11000;50.360;7.582;2023-06-10T12:10:32;30.90;48.40
21678;DHT22;11000;50.360;7.582;2023-06-10T12:12:53;31.70;46.70
21678;DHT22;11000;50.360;7.582;2023-06-10T12:15:23;32.60;46.70
21678;DHT22;11000;50.360;7.582;2023-06-10T12:17:44;31.30;45.40
21678;DHT22;11000;50.360;7.582;2023-06-10T12:20:09;30.60;47.30
21678;DHT22;11000;50.360;7.582;2023-06-10T12:22:44;29.90;49.10
21678;DHT22;11000;50.360;7.582;2023-06-10T12:25:06;29.90;49.60
21678;DHT22;11000;50.360;7.582;2023-06-10T12:27:27;30.10;49.80
21678;DHT22;11000;50.360;7.582;2023-06-10T12:29:53;30.00;49.80
21678;DHT22;11000;50.360;7.582;2023-06-10T12:32:16;30.70;49.00
21678;DHT22;11000;50.360;7.582;2023-06-10T12:34:38;30.60;47.30
21678;DHT22;11000;50.360;7.582;2023-06-10T12:37:00;31.50;47.60
21678;DHT22;11000;50.360;7.582;2023-06-10T12:39:21;31.80;46.90
21678;DHT22;11000;50.360;7.582;2023-06-10T12:41:56;31.80;45.90
21678;DHT22;11000;50.360;7.582;2023-06-10T12:44:17;32.00;45.00
21678;DHT22;11000;50.360;7.582;2023-06-10T12:46:37;31.80;45.50
21678;DHT22;11000;50.360;7.582;2023-06-10T12:48:58;31.80;45.80
21678;DHT22;11000;50.360;7.582;2023-06-10T12:51:18;31.90;46.20
21678;DHT22;11000;50.360;7.582;2023-06-10T12:53:39;31.20;46.60
21678;DHT22;11000;50.360;7.582;2023-06-10T12:56:00;31.90;48.00
21678;DHT22;11000;50.360;7.582;2023-06-10T12:58:22;31.00;47.50
21678;DHT22;11000;50.360;7.582;2023-06-10T13:00:43;31.50;50.10
21678;DHT22;11000;50.360;7.582;2023-06-10T13:03:04;32.10;47.40
21678;DHT22;11000;50.360;7.582;2023-06-10T13:05:26;32.10;47.10
21678;DHT22;11000;50.360;7.582;2023-06-10T13:07:47;32.10;46.90
21678;DHT22;11000;50.360;7.582;2023-06-10T13:10:08;32.70;47.00
21678;DHT22;11000;50.360;7.582;2023-06-10T13:12:28;32.30;46.80
21678;DHT22;11000;50.360;7.582;2023-06-10T13:14:49;32.20;45.30
21678;DHT22;11000;50.360;7.582;2023-06-10T13:17:09;30.80;45.50
21678;DHT22;11000;50.360;7.582;2023-06-10T13:19:30;30.40;46.10
21678;DHT22;11000;50.360;7.582;2023-06-10T13:21:51;30.70;47.60
21678;DHT22;11000;50.360;7.582;2023-06-10T13:24:12;31.40;49.20
21678;DHT22;11000;50.360;7.582;2023-06-10T13:26:33;32.00;46.60
21678;DHT22;11000;50.360;7.582;2023-06-10T13:28:53;32.70;46.10
21678;DHT22;11000;50.360;7.582;2023-06-10T13:31:14;32.40;44.00
21678;DHT22;11000;50.360;7.582;2023-06-10T13:33:34;31.20;44.40
21678;DHT22;11000;50.360;7.582;2023-06-10T13:35:55;30.90;46.60
21678;DHT22;11000;50.360;7.582;2023-06-10T13:38:15;31.30;46.10
21678;DHT22;11000;50.360;7.582;2023-06-10T13:40:36;31.50;45.90
21678;DHT22;11000;50.360;7.582;2023-06-10T13:42:56;31.00;45.50
21678;DHT22;11000;50.360;7.582;2023-06-10T13:45:17;30.70;45.30
21678;DHT22;11000;50.360;7.582;2023-06-10T13:47:38;30.50;45.40
21678;DHT22;11000;50.360;7.582;2023-06-10T13:49:58;30.30;45.40
21678;DHT22;11000;50.360;7.582;2023-06-10T13:52:19;30.40;45.60
21678;DHT22;11000;50.360;7.582;2023-06-10T13:54:39;30.30;43.70
21678;DHT22;11000;50.360;7.582;2023-06-10T13:57:00;30.10;41.90
21678;DHT22;11000;50.360;7.582;2023-06-10T13:59:20;30.10;42.60
21678;DHT22;11000;50.360;7.582;2023-06-10T14:01:41;30.10;41.60
21678;DHT22;11000;50.360;7.582;2023-06-10T14:04:02;30.30;41.80
21678;DHT22;11000;50.360;7.582;2023-06-10T14:06:23;31.00;43.30
21678;DHT22;11000;50.360;7.582;2023-06-10T14:08:44;31.60;41.50
21678;DHT22;11000;50.360;7.582;2023-06-10T14:11:05;31.90;41.10
21678;DHT22;11000;50.360;7.582;2023-06-10T14:13:26;31.60;40.50
21678;DHT22;11000;50.360;7.582;2023-06-10T14:15:46;31.40;40.30
21678;DHT22;11000;50.360;7.582;2023-06-10T14:18:07;31.40;42.10
21678;DHT22;11000;50.360;7.582;2023-06-10T14:20:27;31.90;42.60
21678;DHT22;11000;50.360;7.582;2023-06-10T14:22:51;31.60;41.50
21678;DHT22;11000;50.360;7.582;2023-06-10T14:25:11;31.70;41.20
21678;DHT22;11000;50.360;7.582;2023-06-10T14:27:32;31.20;41.50
21678;DHT22;11000;50.360;7.582;2023-06-10T14:29:52;31.30;42.50
21678;DHT22;11000;50.360;7.582;2023-06-10T14:32:13;32.00;42.80
21678;DHT22;11000;50.360;7.582;2023-06-10T14:34:33;32.00;40.20
21678;DHT22;11000;50.360;7.582;2023-06-10T14:36:55;32.00;40.40
21678;DHT22;11000;50.360;7.582;2023-06-10T14:39:16;32.10;42.10
21678;DHT22;11000;50.360;7.582;2023-06-10T14:41:36;32.30;41.30
21678;DHT22;11000;50.360;7.582;2023-06-10T14:43:57;31.80;41.70
21678;DHT22;11000;50.360;7.582;2023-06-10T14:46:18;31.60;42.30
21678;DHT22;11000;50.360;7.582;2023-06-10T14:48:41;31.60;42.60
21678;DHT22;11000;50.360;7.582;2023-06-10T14:51:01;31.80;41.90
21678;DHT22;11000;50.360;7.582;2023-06-10T14:53:22;31.10;41.90
21678;DHT22;11000;50.360;7.582;2023-06-10T14:55:43;30.70;41.60
21678;DHT22;11000;50.360;7.582;2023-06-10T14:58:03;30.50;41.00
21678;DHT22;11000;50.360;7.582;2023-06-10T15:00:24;30.30;39.20
21678;DHT22;11000;50.360;7.582;2023-06-10T15:02:46;30.30;40.00
21678;DHT22;11000;50.360;7.582;2023-06-10T15:05:09;30.10;40.20
21678;DHT22;11000;50.360;7.582;2023-06-10T15:07:30;30.10;42.60
21678;DHT22;11000;50.360;7.582;2023-06-10T15:09:50;30.00;43.10